Strona główna
METAR-TAF:

METAR-TAF

Lotnisko :

York Airport

York, Pensylwania, Stany Zjednoczone

Szerokość geograficzna: 39-55-10N, Długość geograficzna: 076-52-37W, wysokość: 146 m

Aktualna obserwacja pogody

Raport powstał 47 minut temu, godzina 08:53 UTC
Wiatr 7 kt od zachodnio-południowy zachód
Temperatura -2°C
Wilgotność 50%
Ciśnienie 1012 hPa
Widzialność: 16.1 km
Zachmurzenie całkowite na wysokości 6000 ft

METAR: KTHV 280853Z AUTO 24007KT 10SM OVC060 M02/M11 A2988 RMK AO2 SLP125 T10171106 56008

czas: 04:40 (09:40 UTC)


TAF: brakujący

Obserwacja i prognoza pogody dla ponad 4000 lotnisk (raport METAR i TAF).

Dostępne stacje oznaczono żółtymi i czerwonymi punktami na mapie.

Najedź kursorem aby zobaczyć nazwę stacji.

Kliknij aby zobaczyć obserwacje i prognozy pogody.

Aby zmienić mapę: kliknij na zielony przycisk z czarnym krzyżykiem, aby powiększyć; na zielony przycisk z myślnikiem, aby pomniejszyć; na zielone strzałki, aby przejść do map sąsiednich.


METAR-TAF: